createdAt,value
2018-03-02T00:02:19.242Z,9.18
2018-03-02T00:04:47.553Z,8.63
2018-03-02T00:07:15.808Z,5.87
2018-03-02T00:09:44.306Z,6.87
2018-03-02T00:12:12.638Z,5.93
2018-03-02T00:14:40.905Z,15.18
2018-03-02T00:17:09.160Z,12.55
2018-03-02T00:19:37.123Z,11.07
2018-03-02T00:22:05.040Z,5.70
2018-03-02T00:24:32.968Z,9.20
2018-03-02T00:27:00.943Z,7.97
2018-03-02T00:29:28.832Z,7.47
2018-03-02T00:31:57.030Z,9.57
2018-03-02T00:34:24.988Z,7.72
2018-03-02T00:36:52.930Z,11.50
2018-03-02T00:39:21.008Z,6.97
2018-03-02T00:41:47.207Z,5.55
2018-03-02T00:44:13.456Z,7.22
2018-03-02T00:46:40.096Z,6.85
2018-03-02T00:49:06.260Z,12.52
2018-03-02T00:51:32.682Z,9.48
2018-03-02T00:53:58.867Z,6.80
2018-03-02T00:56:25.089Z,9.98
2018-03-02T00:58:51.275Z,5.53
2018-03-02T01:01:17.497Z,11.43
2018-03-02T01:03:43.696Z,9.95
2018-03-02T01:06:09.907Z,12.85
2018-03-02T01:08:36.884Z,11.98
2018-03-02T01:11:03.084Z,9.05
2018-03-02T01:13:29.288Z,6.85
2018-03-02T01:15:55.428Z,9.38
2018-03-02T01:18:21.947Z,11.82
2018-03-02T01:20:48.916Z,7.97
2018-03-02T01:23:15.192Z,5.43
2018-03-02T01:25:41.371Z,13.10
2018-03-02T01:28:07.594Z,8.93
2018-03-02T01:30:34.494Z,16.75
2018-03-02T01:33:00.663Z,9.90
2018-03-02T01:35:26.852Z,8.35
2018-03-02T01:37:53.024Z,10.32
2018-03-02T01:40:19.948Z,12.23
2018-03-02T01:42:46.907Z,6.87
2018-03-02T01:45:13.164Z,11.38
2018-03-02T01:47:40.421Z,10.50
2018-03-02T01:50:07.343Z,6.90
2018-03-02T01:52:33.523Z,17.58
2018-03-02T01:55:00.428Z,13.20
2018-03-02T01:57:26.597Z,11.85
2018-03-02T01:59:53.696Z,12.07
2018-03-02T02:02:19.898Z,7.75
2018-03-02T02:04:46.107Z,10.18
2018-03-02T02:07:13.751Z,15.85
2018-03-02T02:09:40.743Z,11.55
2018-03-02T02:12:07.671Z,10.38
2018-03-02T02:14:33.968Z,9.90
2018-03-02T02:17:00.141Z,9.32
2018-03-02T02:19:26.311Z,10.82
2018-03-02T02:21:54.079Z,20.35
2018-03-02T02:24:20.243Z,14.27
2018-03-02T02:26:46.428Z,9.02
2018-03-02T02:29:13.382Z,16.08
2018-03-02T02:31:40.324Z,10.77
2018-03-02T02:34:06.480Z,18.10
2018-03-02T02:36:32.768Z,12.18
2018-03-02T02:38:59.880Z,14.48
2018-03-02T02:41:26.042Z,8.13
2018-03-02T02:43:53.264Z,13.27
2018-03-02T02:46:19.536Z,13.15
2018-03-02T02:48:45.944Z,9.52
2018-03-02T02:51:12.120Z,14.07
2018-03-02T02:53:40.091Z,15.43
2018-03-02T02:56:06.320Z,12.13
2018-03-02T02:58:34.263Z,12.52
2018-03-02T03:01:00.620Z,13.20
2018-03-02T03:03:26.840Z,12.93
2018-03-02T03:05:54.749Z,21.02
2018-03-02T03:08:22.835Z,12.50
2018-03-02T03:10:50.727Z,13.40
2018-03-02T03:13:18.650Z,18.90
2018-03-02T03:15:46.808Z,15.25
2018-03-02T03:18:14.734Z,14.98
2018-03-02T03:20:42.639Z,14.68
2018-03-02T03:23:10.549Z,12.02
2018-03-02T03:25:38.442Z,15.60
2018-03-02T03:28:06.354Z,15.52
2018-03-02T03:30:34.271Z,14.85
2018-03-02T03:33:02.367Z,16.17
2018-03-02T03:35:30.268Z,9.88
2018-03-02T03:37:58.187Z,12.70
2018-03-02T03:40:24.331Z,14.13
2018-03-02T03:42:50.504Z,15.95
2018-03-02T03:45:16.780Z,14.20
2018-03-02T03:47:42.947Z,13.68
2018-03-02T03:50:09.515Z,9.95
2018-03-02T03:52:35.712Z,15.55
2018-03-02T03:55:01.880Z,15.07
2018-03-02T03:57:28.043Z,12.60
2018-03-02T03:59:54.253Z,15.25
2018-03-02T04:02:20.448Z,17.37
2018-03-02T04:04:46.647Z,15.57
2018-03-02T04:07:12.811Z,13.00
2018-03-02T04:09:39.732Z,16.02
2018-03-02T04:12:06.195Z,21.20
2018-03-02T04:14:32.357Z,13.40
2018-03-02T04:16:58.555Z,19.05
2018-03-02T04:19:24.768Z,18.45
2018-03-02T04:21:51.696Z,14.27
2018-03-02T04:24:17.928Z,13.23
2018-03-02T04:26:44.120Z,11.73
2018-03-02T04:29:10.319Z,14.05
2018-03-02T04:31:37.239Z,20.02
2018-03-02T04:34:04.154Z,17.37
2018-03-02T04:36:30.327Z,15.95
2018-03-02T04:38:56.533Z,18.33
2018-03-02T04:41:22.704Z,17.05
2018-03-02T04:43:49.619Z,17.87
2018-03-02T04:46:15.835Z,16.52
2018-03-02T04:48:41.991Z,21.42
2018-03-02T04:51:08.553Z,23.05
2018-03-02T04:53:34.727Z,17.05
2018-03-02T04:56:00.913Z,47.70
2018-03-02T04:58:27.051Z,19.05
2018-03-02T05:00:53.311Z,21.45
2018-03-02T05:03:19.479Z,20.05
2018-03-02T05:05:45.664Z,19.98
2018-03-02T05:08:11.843Z,25.88
2018-03-02T05:10:38.019Z,17.42
2018-03-02T05:13:04.207Z,19.25
2018-03-02T05:15:30.763Z,14.10
2018-03-02T05:17:56.943Z,28.65
2018-03-02T05:20:23.120Z,21.52
2018-03-02T05:22:49.275Z,23.48
2018-03-02T05:25:15.477Z,17.58
2018-03-02T05:27:41.639Z,22.10
2018-03-02T05:30:08.647Z,17.35
2018-03-02T05:32:35.563Z,25.73
2018-03-02T05:35:01.752Z,31.35
2018-03-02T05:37:27.910Z,19.65
2018-03-02T05:39:54.288Z,24.17
2018-03-02T05:42:20.487Z,14.60
2018-03-02T05:44:47.474Z,20.23
2018-03-02T05:47:14.417Z,23.73
2018-03-02T05:49:41.311Z,23.80
2018-03-02T05:52:07.608Z,26.17
2018-03-02T05:54:34.551Z,26.52
2018-03-02T05:57:00.716Z,27.13
2018-03-02T05:59:26.902Z,25.80
2018-03-02T06:01:53.872Z,27.17
2018-03-02T06:04:20.853Z,16.35
2018-03-02T06:06:47.026Z,23.90
2018-03-02T06:09:13.204Z,32.55
2018-03-02T06:11:39.404Z,21.83
2018-03-02T06:14:06.463Z,23.02
2018-03-02T06:16:33.416Z,19.33
2018-03-02T06:18:59.595Z,18.98
2018-03-02T06:21:25.756Z,21.25
2018-03-02T06:23:51.939Z,21.60
2018-03-02T06:26:18.119Z,22.45
2018-03-02T06:28:44.303Z,23.12
2018-03-02T06:31:11.236Z,19.98
2018-03-02T06:33:38.135Z,26.15
2018-03-02T06:36:04.348Z,23.02
2018-03-02T06:38:31.278Z,22.65
2018-03-02T06:40:58.191Z,23.92
2018-03-02T06:43:24.363Z,22.37
2018-03-02T06:45:50.615Z,28.25
2018-03-02T06:48:16.831Z,21.62
2018-03-02T06:50:43.759Z,20.88
2018-03-02T06:53:10.493Z,22.62
2018-03-02T06:55:36.631Z,22.33
2018-03-02T06:58:02.787Z,20.67
2018-03-02T07:00:28.979Z,23.77
2018-03-02T07:02:55.155Z,20.17
2018-03-02T07:05:21.659Z,21.40
2018-03-02T07:07:47.859Z,21.85
2018-03-02T07:10:14.027Z,26.48
2018-03-02T07:12:40.259Z,31.12
2018-03-02T07:15:06.486Z,23.67
2018-03-02T07:17:32.645Z,23.05
2018-03-02T07:19:58.893Z,23.95
2018-03-02T07:22:25.123Z,23.73
2018-03-02T07:24:52.052Z,23.92
2018-03-02T07:27:18.267Z,21.75
2018-03-02T07:29:44.495Z,23.87
2018-03-02T07:32:10.660Z,22.20
2018-03-02T07:34:36.864Z,31.30
2018-03-02T07:37:03.054Z,22.50
2018-03-02T07:39:29.284Z,20.83
2018-03-02T07:41:55.643Z,21.77
2018-03-02T07:44:21.843Z,24.95
2018-03-02T07:46:48.835Z,23.75
2018-03-02T07:49:15.033Z,19.45
2018-03-02T07:51:41.195Z,22.45
2018-03-02T07:54:07.982Z,33.67
2018-03-02T07:56:34.521Z,31.73
2018-03-02T07:59:00.707Z,24.73
2018-03-02T08:01:27.636Z,22.33
2018-03-02T08:03:53.860Z,28.08
2018-03-02T08:06:21.499Z,24.33
2018-03-02T08:08:47.703Z,36.55
2018-03-02T08:11:13.895Z,31.80
2018-03-02T08:13:40.042Z,30.02
2018-03-02T08:16:07.012Z,26.80
2018-03-02T08:18:33.379Z,26.67
2018-03-02T08:20:59.615Z,25.88
2018-03-02T08:23:25.794Z,28.83
2018-03-02T08:25:52.015Z,31.45
2018-03-02T08:28:18.184Z,30.35
2018-03-02T08:30:44.383Z,28.45
2018-03-02T08:33:10.598Z,23.15
2018-03-02T08:35:36.747Z,46.13
2018-03-02T08:38:02.883Z,28.98
2018-03-02T08:40:29.091Z,24.23
2018-03-02T08:42:55.300Z,27.98
2018-03-02T08:45:22.216Z,27.45
2018-03-02T08:47:48.400Z,29.25
2018-03-02T08:50:14.596Z,26.02
2018-03-02T08:52:40.751Z,32.58
2018-03-02T08:55:07.156Z,31.48
2018-03-02T08:57:33.404Z,27.62
2018-03-02T08:59:59.564Z,25.05
2018-03-02T09:02:25.735Z,31.12
2018-03-02T09:04:51.964Z,52.30
2018-03-02T09:07:18.134Z,31.02
2018-03-02T09:09:44.327Z,27.15
2018-03-02T09:12:10.479Z,24.42
2018-03-02T09:14:36.644Z,24.30
2018-03-02T09:17:03.538Z,24.25
2018-03-02T09:19:29.872Z,30.15
2018-03-02T09:21:56.047Z,22.45
2018-03-02T09:24:22.195Z,27.25
2018-03-02T09:26:48.520Z,25.50
2018-03-02T09:29:14.665Z,30.75
2018-03-02T09:31:41.561Z,22.67
2018-03-02T09:34:07.756Z,23.38
2018-03-02T09:36:33.931Z,30.60
2018-03-02T09:39:00.103Z,30.73
2018-03-02T09:41:26.332Z,26.55
2018-03-02T09:43:52.532Z,22.67
2018-03-02T09:46:19.008Z,25.37
2018-03-02T09:48:45.164Z,26.30
2018-03-02T09:51:24.735Z,23.17
2018-03-02T09:53:50.891Z,33.17
2018-03-02T09:56:17.561Z,27.65
2018-03-02T09:58:43.743Z,31.15
2018-03-02T10:01:09.971Z,27.62
2018-03-02T10:03:36.167Z,26.52
2018-03-02T10:06:03.160Z,27.62
2018-03-02T10:08:29.344Z,26.25
2018-03-02T10:10:55.545Z,26.65
2018-03-02T10:13:21.755Z,32.85
2018-03-02T10:15:47.968Z,31.12
2018-03-02T10:18:14.207Z,26.90
2018-03-02T10:20:42.423Z,32.30
2018-03-02T10:23:08.575Z,25.05
2018-03-02T10:25:34.791Z,34.72
2018-03-02T10:28:01.794Z,31.48
2018-03-02T10:30:28.736Z,21.80
2018-03-02T10:32:54.983Z,21.92
2018-03-02T10:35:22.087Z,23.50
2018-03-02T10:37:48.288Z,29.63
2018-03-02T10:40:14.450Z,27.02
2018-03-02T10:42:40.664Z,23.92
2018-03-02T10:45:13.700Z,29.10
2018-03-02T10:47:40.840Z,27.58
2018-03-02T10:50:13.821Z,24.70
2018-03-02T10:52:40.798Z,24.67
2018-03-02T10:55:07.038Z,23.10
2018-03-02T10:57:33.239Z,34.22
2018-03-02T10:59:59.444Z,26.70
2018-03-02T11:02:25.607Z,36.50
2018-03-02T11:04:58.005Z,32.88
2018-03-02T11:07:24.972Z,35.28
2018-03-02T11:09:52.107Z,27.42
2018-03-02T11:12:18.296Z,23.38
2018-03-02T11:14:44.498Z,27.07
2018-03-02T11:17:11.471Z,34.83
2018-03-02T11:19:38.381Z,36.67
2018-03-02T11:22:05.323Z,27.23
2018-03-02T11:24:31.531Z,27.77
2018-03-02T11:26:57.708Z,23.90
2018-03-02T11:29:24.641Z,49.85
2018-03-02T11:31:50.800Z,24.77
2018-03-02T11:34:17.717Z,27.00
2018-03-02T11:36:43.880Z,24.00
2018-03-02T11:39:10.790Z,31.37
2018-03-02T11:41:36.951Z,25.62
2018-03-02T11:44:03.940Z,32.33
2018-03-02T11:46:30.831Z,27.75
2018-03-02T11:48:57.003Z,22.15
2018-03-02T11:51:23.923Z,32.97
2018-03-02T11:53:51.360Z,21.77
2018-03-02T11:56:17.535Z,23.20
2018-03-02T11:58:43.968Z,22.52
2018-03-02T12:01:10.179Z,22.50
2018-03-02T12:03:36.340Z,25.00
2018-03-02T12:06:02.560Z,22.75
2018-03-02T12:08:28.815Z,20.00
2018-03-02T12:10:55.738Z,21.30
2018-03-02T12:13:21.907Z,25.35
2018-03-02T12:15:48.860Z,21.40
2018-03-02T12:18:15.017Z,25.73
2018-03-02T12:20:41.228Z,23.13
2018-03-02T12:23:08.168Z,20.15
2018-03-02T12:25:34.335Z,25.87
2018-03-02T12:28:01.223Z,22.20
2018-03-02T12:30:27.403Z,26.27
2018-03-02T12:32:53.596Z,20.53
2018-03-02T12:35:19.746Z,21.60
2018-03-02T12:37:46.036Z,19.67
2018-03-02T12:40:12.196Z,18.53
2018-03-02T12:42:39.863Z,19.60
2018-03-02T12:45:06.091Z,21.20
2018-03-02T12:47:32.316Z,22.23
2018-03-02T12:49:58.459Z,20.58
2018-03-02T12:52:24.619Z,22.63
2018-03-02T12:54:51.729Z,20.58
2018-03-02T12:57:17.919Z,17.58
2018-03-02T12:59:44.151Z,20.12
2018-03-02T13:02:10.288Z,17.37
2018-03-02T13:04:37.175Z,14.85
2018-03-02T13:07:03.513Z,20.33
2018-03-02T13:09:29.719Z,19.75
2018-03-02T13:11:55.931Z,26.62
2018-03-02T13:14:22.331Z,22.48
2018-03-02T13:16:48.584Z,34.03
2018-03-02T13:19:14.767Z,19.58
2018-03-02T13:21:41.660Z,18.95
2018-03-02T13:24:07.796Z,20.27
2018-03-02T13:26:46.359Z,17.20
2018-03-02T13:29:12.545Z,24.37
2018-03-02T13:31:38.719Z,21.70
2018-03-02T13:34:18.079Z,17.48
2018-03-02T13:36:44.271Z,23.45
2018-03-02T13:39:11.187Z,16.17
2018-03-02T13:41:49.907Z,14.40
2018-03-02T13:44:16.867Z,16.80
2018-03-02T13:46:43.048Z,15.13
2018-03-02T13:49:22.348Z,19.37
2018-03-02T13:51:48.548Z,14.98
2018-03-02T13:54:14.714Z,20.20
2018-03-02T13:56:53.191Z,17.02
2018-03-02T13:59:19.385Z,15.13
2018-03-02T14:01:45.825Z,14.25
2018-03-02T14:04:25.028Z,16.30
2018-03-02T14:06:51.192Z,16.55
2018-03-02T14:09:18.095Z,18.50
2018-03-02T14:11:44.249Z,22.48
2018-03-02T14:14:10.420Z,18.92
2018-03-02T14:16:36.579Z,17.25
2018-03-02T14:19:02.707Z,18.00
2018-03-02T14:21:28.851Z,22.10
2018-03-02T14:23:55.012Z,18.87
2018-03-02T14:26:23.628Z,19.75
2018-03-02T14:28:50.521Z,28.75
2018-03-02T14:31:16.731Z,20.90
2018-03-02T14:33:43.236Z,20.27
2018-03-02T14:36:09.416Z,20.23
2018-03-02T14:38:35.599Z,24.52
2018-03-02T14:41:01.988Z,19.75
2018-03-02T14:43:28.143Z,20.12
2018-03-02T14:45:54.320Z,19.35
2018-03-02T14:48:21.522Z,22.40
2018-03-02T14:50:47.668Z,19.83
2018-03-02T14:53:13.819Z,24.95
2018-03-02T14:55:39.987Z,24.63
2018-03-02T14:58:06.192Z,18.35
2018-03-02T15:00:32.479Z,25.05
2018-03-02T15:02:58.651Z,19.50
2018-03-02T15:05:24.819Z,23.05
2018-03-02T15:07:51.763Z,21.30
2018-03-02T15:10:18.643Z,22.00
2018-03-02T15:12:45.711Z,19.33
2018-03-02T15:15:11.908Z,23.23
2018-03-02T15:17:38.078Z,23.00
2018-03-02T15:20:04.219Z,21.77
2018-03-02T15:22:30.439Z,29.37
2018-03-02T15:24:56.587Z,27.02
2018-03-02T15:27:23.211Z,27.65
2018-03-02T15:29:49.496Z,26.10
2018-03-02T15:32:15.757Z,24.35
2018-03-02T15:34:42.249Z,20.98
2018-03-02T15:37:08.427Z,17.55
2018-03-02T15:39:34.635Z,18.95
2018-03-02T15:42:00.820Z,29.73
2018-03-02T15:44:27.013Z,24.77
2018-03-02T15:46:53.187Z,19.37
2018-03-02T15:49:19.396Z,20.23
2018-03-02T15:51:45.550Z,24.50
2018-03-02T15:54:11.707Z,24.20
2018-03-02T15:56:37.943Z,29.10
2018-03-02T15:59:04.128Z,23.25
2018-03-02T16:01:31.062Z,25.45
2018-03-02T16:03:57.401Z,25.85
2018-03-02T16:06:23.599Z,23.17
2018-03-02T16:08:49.752Z,18.75
2018-03-02T16:11:15.904Z,25.95
2018-03-02T16:13:42.814Z,17.35
2018-03-02T16:16:09.004Z,19.75
2018-03-02T16:18:35.147Z,21.20
2018-03-02T16:21:02.598Z,26.20
2018-03-02T16:23:28.884Z,20.67
2018-03-02T16:25:55.113Z,19.83
2018-03-02T16:28:21.399Z,23.70
2018-03-02T16:30:48.347Z,24.65
2018-03-02T16:33:14.537Z,23.30
2018-03-02T16:35:40.749Z,18.45
2018-03-02T16:38:06.908Z,19.85
2018-03-02T16:40:33.089Z,25.62
2018-03-02T16:43:00.103Z,23.20
2018-03-02T16:45:27.801Z,23.77
2018-03-02T16:47:57.010Z,23.27
2018-03-02T16:50:23.713Z,22.42
2018-03-02T16:52:49.859Z,27.70
2018-03-02T16:55:16.031Z,21.58
2018-03-02T16:57:42.333Z,22.65
2018-03-02T17:00:08.523Z,25.65
2018-03-02T17:02:34.696Z,26.15
2018-03-02T17:05:01.114Z,26.80
2018-03-02T17:07:27.544Z,25.95
2018-03-02T17:09:53.707Z,24.08
2018-03-02T17:12:20.623Z,22.42
2018-03-02T17:14:46.835Z,23.55
2018-03-02T17:17:13.047Z,26.73
2018-03-02T17:19:40.939Z,23.73
2018-03-02T17:22:07.141Z,26.02
2018-03-02T17:24:34.028Z,26.77
2018-03-02T17:27:00.203Z,24.60
2018-03-02T17:29:26.367Z,30.23
2018-03-02T17:31:52.523Z,34.03
2018-03-02T17:34:18.754Z,32.25
2018-03-02T17:36:45.207Z,28.80
2018-03-02T17:39:11.359Z,29.08
2018-03-02T17:41:37.531Z,25.73
2018-03-02T17:44:03.728Z,27.23
2018-03-02T17:46:29.879Z,27.00
2018-03-02T17:48:57.787Z,29.50
2018-03-02T17:51:24.690Z,27.10
2018-03-02T17:53:50.855Z,21.25
2018-03-02T17:56:18.756Z,23.23
2018-03-02T17:58:46.668Z,20.10
2018-03-02T18:01:12.821Z,29.70
2018-03-02T18:03:38.972Z,25.25
2018-03-02T18:06:05.426Z,24.95
2018-03-02T18:08:31.607Z,31.48
2018-03-02T18:10:59.831Z,24.77
2018-03-02T18:13:26.759Z,24.27
2018-03-02T18:15:52.911Z,30.65
2018-03-02T18:18:20.830Z,27.40
2018-03-02T18:20:50.177Z,27.90
2018-03-02T18:23:16.337Z,27.05
2018-03-02T18:25:42.499Z,25.50
2018-03-02T18:28:10.466Z,25.02
2018-03-02T18:30:36.629Z,23.30
2018-03-02T18:33:02.873Z,29.08
2018-03-02T18:35:29.023Z,23.10
2018-03-02T18:37:55.166Z,26.73
2018-03-02T18:40:21.371Z,26.10
2018-03-02T18:42:47.519Z,22.17
2018-03-02T18:45:13.870Z,25.40
2018-03-02T18:47:40.035Z,26.25
2018-03-02T18:50:06.959Z,27.23
2018-03-02T18:52:33.139Z,24.20
2018-03-02T18:54:59.367Z,25.05
2018-03-02T18:57:26.275Z,25.90
2018-03-02T18:59:52.487Z,25.30
2018-03-02T19:02:18.647Z,23.27
2018-03-02T19:04:44.812Z,28.40
2018-03-02T19:07:11.195Z,24.42
2018-03-02T19:09:37.355Z,22.62
2018-03-02T19:12:03.507Z,21.45
2018-03-02T19:14:29.753Z,22.85
2018-03-02T19:16:55.883Z,26.27
2018-03-02T19:19:22.027Z,23.30
2018-03-02T19:21:48.275Z,24.37
2018-03-02T19:24:14.425Z,25.55
2018-03-02T19:26:40.582Z,26.27
2018-03-02T19:29:06.856Z,29.95
2018-03-02T19:31:33.801Z,25.27
2018-03-02T19:34:00.077Z,25.58
2018-03-02T19:36:26.354Z,26.80
2018-03-02T19:38:52.527Z,27.27
2018-03-02T19:41:19.175Z,26.30
2018-03-02T19:43:46.058Z,27.27
2018-03-02T19:46:12.239Z,27.10
2018-03-02T19:48:40.160Z,23.35
2018-03-02T19:51:06.350Z,23.02
2018-03-02T19:53:34.486Z,24.27
2018-03-02T19:56:00.947Z,18.98
2018-03-02T19:58:27.091Z,22.08
2018-03-02T20:00:54.091Z,28.38
2018-03-02T20:03:21.084Z,22.60
2018-03-02T20:05:47.295Z,24.95
2018-03-02T20:08:15.244Z,25.02
2018-03-02T20:10:41.646Z,28.45
2018-03-02T20:13:07.827Z,15.95
2018-03-02T20:15:35.747Z,20.30
2018-03-02T20:18:03.816Z,24.08
2018-03-02T20:20:29.991Z,27.85
2018-03-02T20:22:56.155Z,17.42
2018-03-02T20:25:22.580Z,24.55
2018-03-02T20:27:48.741Z,20.23
2018-03-02T20:30:14.926Z,26.02
2018-03-02T20:32:41.491Z,22.30
2018-03-02T20:35:07.633Z,23.83
2018-03-02T20:37:35.551Z,17.05
2018-03-02T20:40:03.475Z,20.23
2018-03-02T20:42:31.943Z,21.08
2018-03-02T20:44:58.079Z,24.58
2018-03-02T20:47:24.238Z,17.00
2018-03-02T20:49:50.643Z,20.55
2018-03-02T20:52:16.824Z,21.42
2018-03-02T20:54:42.981Z,19.17
2018-03-02T20:57:09.172Z,19.12
2018-03-02T20:59:35.383Z,22.87
2018-03-02T21:02:01.586Z,19.35
2018-03-02T21:04:29.614Z,18.48
2018-03-02T21:06:57.519Z,18.83
2018-03-02T21:09:25.517Z,23.30
2018-03-02T21:11:53.407Z,20.17
2018-03-02T21:14:21.348Z,19.95
2018-03-02T21:16:49.258Z,22.73
2018-03-02T21:19:17.184Z,22.67
2018-03-02T21:21:45.110Z,19.80
2018-03-02T21:24:13.024Z,19.73
2018-03-02T21:26:41.360Z,21.75
2018-03-02T21:29:09.267Z,23.52
2018-03-02T21:31:37.170Z,19.90
2018-03-02T21:34:05.119Z,16.73
2018-03-02T21:36:33.065Z,20.40
2018-03-02T21:39:00.985Z,18.83
2018-03-02T21:41:28.923Z,20.80
2018-03-02T21:43:56.833Z,24.12
2018-03-02T21:46:24.758Z,22.37
2018-03-02T21:48:52.687Z,24.85
2018-03-02T21:51:20.638Z,23.77
2018-03-02T21:53:48.557Z,23.35
2018-03-02T21:56:16.528Z,22.23
2018-03-02T21:58:44.439Z,26.77
2018-03-02T22:01:12.347Z,22.85
2018-03-02T22:03:40.251Z,21.40
2018-03-02T22:06:08.210Z,23.73
2018-03-02T22:08:34.373Z,22.48
2018-03-02T22:11:00.589Z,32.63
2018-03-02T22:13:26.803Z,30.90
2018-03-02T22:15:53.006Z,26.92
2018-03-02T22:18:19.179Z,26.12
2018-03-02T22:20:45.331Z,23.38
2018-03-02T22:23:11.512Z,23.83
2018-03-02T22:25:38.459Z,27.13
2018-03-02T22:28:05.386Z,23.10
2018-03-02T22:30:31.574Z,29.40
2018-03-02T22:32:58.480Z,21.60
2018-03-02T22:35:24.627Z,18.12
2018-03-02T22:37:50.819Z,27.00
2018-03-02T22:40:17.359Z,20.60
2018-03-02T22:42:43.532Z,27.83
2018-03-02T22:45:11.280Z,24.20
2018-03-02T22:47:37.454Z,23.95
2018-03-02T22:50:03.641Z,23.52
2018-03-02T22:52:29.805Z,23.80
2018-03-02T22:54:56.195Z,29.83
2018-03-02T22:57:22.352Z,26.80
2018-03-02T22:59:48.523Z,23.98
2018-03-02T23:02:15.456Z,24.10
2018-03-02T23:04:41.633Z,30.10
2018-03-02T23:07:07.817Z,27.02
2018-03-02T23:09:33.981Z,23.85
2018-03-02T23:12:00.275Z,25.92
2018-03-02T23:14:26.423Z,25.12
2018-03-02T23:16:54.109Z,24.40
2018-03-02T23:19:21.013Z,24.17
2018-03-02T23:21:47.168Z,23.58
2018-03-02T23:24:13.355Z,25.85
2018-03-02T23:26:39.515Z,28.45
2018-03-02T23:29:07.159Z,25.33
2018-03-02T23:31:33.727Z,28.80
2018-03-02T23:33:59.883Z,24.40
2018-03-02T23:36:26.060Z,28.48
2018-03-02T23:38:52.248Z,24.77
2018-03-02T23:41:18.395Z,30.27
2018-03-02T23:43:44.654Z,30.85
2018-03-02T23:46:11.120Z,26.83
2018-03-02T23:48:37.323Z,24.35
2018-03-02T23:51:04.202Z,24.98
2018-03-02T23:53:30.370Z,31.42
2018-03-02T23:55:56.507Z,30.42
2018-03-02T23:58:22.662Z,32.30
